createdAt,value
2023-03-03T00:00:20.438Z,5.70
2023-03-03T00:05:18.003Z,5.80
2023-03-03T00:10:15.511Z,5.60
2023-03-03T00:15:21.107Z,5.71
2023-03-03T00:20:34.545Z,5.76
2023-03-03T00:25:33.389Z,6.00
2023-03-03T00:30:30.996Z,6.09
2023-03-03T00:35:30.476Z,6.27
2023-03-03T00:40:35.375Z,5.98
2023-03-03T00:45:40.689Z,6.07
2023-03-03T00:50:43.226Z,6.05
2023-03-03T00:55:40.572Z,5.86
2023-03-03T01:00:39.726Z,6.20
2023-03-03T01:05:39.188Z,6.06
2023-03-03T01:10:47.507Z,5.75
2023-03-03T01:15:46.762Z,5.03
2023-03-03T01:20:43.814Z,5.45
2023-03-03T01:25:41.187Z,5.75
2023-03-03T01:30:38.422Z,5.86
2023-03-03T01:35:36.474Z,6.13
2023-03-03T01:40:33.785Z,5.85
2023-03-03T01:45:47.828Z,5.98
2023-03-03T01:50:51.019Z,5.93
2023-03-03T01:55:53.131Z,6.08
2023-03-03T02:00:53.504Z,5.62
2023-03-03T02:05:54.572Z,5.65
2023-03-03T02:10:53.809Z,4.91
2023-03-03T02:15:51.200Z,5.23
2023-03-03T02:20:57.763Z,5.36
2023-03-03T02:26:08.802Z,5.49
2023-03-03T02:31:12.565Z,5.63
2023-03-03T02:36:13.628Z,5.98
2023-03-03T02:41:21.231Z,6.10
2023-03-03T02:46:18.753Z,5.76
2023-03-03T02:51:16.789Z,5.57
2023-03-03T02:56:14.528Z,5.95
2023-03-03T03:01:14.470Z,6.28
2023-03-03T03:06:12.891Z,6.36
2023-03-03T03:11:11.393Z,6.07
2023-03-03T03:16:11.137Z,5.74
2023-03-03T03:21:10.336Z,5.93
2023-03-03T03:26:09.504Z,5.71
2023-03-03T03:31:09.726Z,5.79
2023-03-03T03:36:08.626Z,5.79
2023-03-03T03:41:07.632Z,6.14
2023-03-03T03:46:05.485Z,6.26
2023-03-03T03:51:03.809Z,6.23
2023-03-03T03:56:02.754Z,6.38
2023-03-03T04:01:03.282Z,6.46
2023-03-03T04:06:00.444Z,6.15
2023-03-03T04:10:58.297Z,6.21
2023-03-03T04:15:57.423Z,6.26
2023-03-03T04:20:55.327Z,5.90
2023-03-03T04:25:53.609Z,5.90
2023-03-03T04:30:52.366Z,6.22
2023-03-03T04:35:55.436Z,6.26
2023-03-03T04:40:52.866Z,6.16
2023-03-03T04:45:51.293Z,6.24
2023-03-03T04:50:48.265Z,6.29
2023-03-03T04:55:45.998Z,6.66
2023-03-03T05:00:43.512Z,6.55
2023-03-03T05:05:41.542Z,6.51
2023-03-03T05:10:39.377Z,6.50
2023-03-03T05:15:37.200Z,6.16
2023-03-03T05:20:34.488Z,6.07
2023-03-03T05:25:32.311Z,6.26
2023-03-03T05:30:29.205Z,6.59
2023-03-03T05:35:27.351Z,6.52
2023-03-03T05:40:24.665Z,6.87
2023-03-03T05:45:23.784Z,7.04
2023-03-03T05:50:24.067Z,6.94
2023-03-03T05:55:22.068Z,6.75
2023-03-03T06:00:20.048Z,6.97
2023-03-03T06:05:17.375Z,7.00
2023-03-03T06:10:15.252Z,7.17
2023-03-03T06:15:17.127Z,7.14
2023-03-03T06:20:14.094Z,7.37
2023-03-03T06:25:11.820Z,7.22
2023-03-03T06:30:10.470Z,7.25
2023-03-03T06:35:09.009Z,7.93
2023-03-03T06:40:07.513Z,8.03
2023-03-03T06:45:06.165Z,8.25
2023-03-03T06:50:05.185Z,8.57
2023-03-03T06:55:11.835Z,9.02
2023-03-03T07:00:16.554Z,8.80
2023-03-03T07:05:16.421Z,8.83
2023-03-03T07:10:23.577Z,9.55
2023-03-03T07:15:27.999Z,9.93
2023-03-03T07:20:53.744Z,10.20
2023-03-03T07:25:52.855Z,10.30
2023-03-03T07:30:50.610Z,10.56
2023-03-03T07:35:48.173Z,10.81
2023-03-03T07:40:49.812Z,11.11
2023-03-03T07:45:48.060Z,10.91
2023-03-03T07:50:45.258Z,11.46
2023-03-03T07:55:45.435Z,11.44
2023-03-03T08:01:28.133Z,11.74
2023-03-03T08:06:44.597Z,11.88
2023-03-03T08:11:51.886Z,12.19
2023-03-03T08:16:49.249Z,12.34
2023-03-03T08:21:49.889Z,12.63
2023-03-03T08:26:48.885Z,12.72
2023-03-03T08:31:46.255Z,12.77
2023-03-03T08:36:44.101Z,12.87
2023-03-03T08:41:43.794Z,12.96
2023-03-03T08:46:44.116Z,13.13
2023-03-03T08:51:41.432Z,13.61
2023-03-03T08:56:46.472Z,14.52
2023-03-03T09:01:46.086Z,15.03
2023-03-03T09:06:43.066Z,15.56
2023-03-03T09:11:40.180Z,16.07
2023-03-03T09:16:40.523Z,16.54
2023-03-03T09:21:46.275Z,17.11
2023-03-03T09:26:52.507Z,17.53
2023-03-03T09:32:01.602Z,17.80
2023-03-03T09:36:59.546Z,17.86
2023-03-03T09:42:20.948Z,17.72
2023-03-03T09:47:56.686Z,17.87
2023-03-03T09:52:57.766Z,17.88
2023-03-03T09:58:15.876Z,17.67
2023-03-03T10:04:01.784Z,17.42
2023-03-03T10:09:43.335Z,17.25
2023-03-03T10:14:56.785Z,16.53
2023-03-03T10:20:12.973Z,16.52
2023-03-03T10:25:26.314Z,16.27
2023-03-03T10:30:42.446Z,16.34
2023-03-03T10:36:07.372Z,16.08
2023-03-03T10:41:20.065Z,16.09
2023-03-03T10:46:51.412Z,16.13
2023-03-03T10:52:01.053Z,16.04
2023-03-03T10:57:05.502Z,16.07
2023-03-03T11:02:09.105Z,16.19
2023-03-03T11:07:11.798Z,15.98
2023-03-03T11:12:24.093Z,16.08
2023-03-03T11:17:28.714Z,15.91
2023-03-03T11:22:39.809Z,15.93
2023-03-03T11:28:11.011Z,15.77
2023-03-03T11:33:12.634Z,15.60
2023-03-03T11:38:31.123Z,15.21
2023-03-03T11:43:36.904Z,15.56
2023-03-03T11:48:40.910Z,15.73
2023-03-03T11:54:04.210Z,15.86
2023-03-03T11:59:24.391Z,15.89
2023-03-03T12:04:27.182Z,16.14
2023-03-03T12:09:38.500Z,16.22
2023-03-03T12:14:54.029Z,16.32
2023-03-03T12:19:56.147Z,16.49
2023-03-03T12:25:18.014Z,16.44
2023-03-03T12:30:27.344Z,16.34
2023-03-03T12:35:31.122Z,16.26
2023-03-03T12:40:33.432Z,16.25
2023-03-03T12:45:41.917Z,15.91
2023-03-03T12:50:51.029Z,15.59
2023-03-03T12:55:53.831Z,15.69
2023-03-03T13:01:00.672Z,15.52
2023-03-03T13:06:07.720Z,15.30
2023-03-03T13:11:24.463Z,14.89
2023-03-03T13:16:41.074Z,14.58
2023-03-03T13:21:45.426Z,14.43
2023-03-03T13:26:49.810Z,14.15
2023-03-03T13:31:49.564Z,13.55
2023-03-03T13:36:54.639Z,13.62
2023-03-03T13:42:00.403Z,13.08
2023-03-03T13:47:13.597Z,13.09
2023-03-03T13:52:13.440Z,13.33
2023-03-03T13:57:34.602Z,12.99
2023-03-03T14:02:50.070Z,12.87
2023-03-03T14:07:57.772Z,13.06
2023-03-03T14:13:16.257Z,12.77
2023-03-03T14:18:30.048Z,12.51
2023-03-03T14:23:43.286Z,12.15
2023-03-03T14:28:43.499Z,12.27
2023-03-03T14:33:45.875Z,12.39
2023-03-03T14:38:51.956Z,12.50
2023-03-03T14:44:00.375Z,12.17
2023-03-03T14:48:58.883Z,12.34
2023-03-03T14:53:59.997Z,12.03
2023-03-03T14:59:18.298Z,12.08
2023-03-03T15:04:25.720Z,12.20
2023-03-03T15:09:34.985Z,12.15
2023-03-03T15:14:38.076Z,12.14
2023-03-03T15:19:46.674Z,12.07
2023-03-03T15:24:49.167Z,11.92
2023-03-03T15:29:57.225Z,11.69
2023-03-03T15:35:00.230Z,11.70
2023-03-03T15:40:03.704Z,11.26
2023-03-03T15:45:07.936Z,11.34
2023-03-03T15:50:26.238Z,11.15
2023-03-03T15:55:52.576Z,11.01
2023-03-03T16:01:03.654Z,10.95
2023-03-03T16:06:06.343Z,10.47
2023-03-03T16:11:12.459Z,10.40
2023-03-03T16:16:28.642Z,10.07
2023-03-03T16:21:55.555Z,10.32
2023-03-03T16:27:00.765Z,10.45
2023-03-03T16:32:23.026Z,10.17
2023-03-03T16:37:41.036Z,10.09
2023-03-03T16:42:38.028Z,9.96
2023-03-03T16:47:49.238Z,10.07
2023-03-03T16:52:54.242Z,10.12
2023-03-03T16:58:03.617Z,10.08
2023-03-03T17:03:26.310Z,9.75
2023-03-03T17:08:48.764Z,9.68
2023-03-03T17:14:15.932Z,9.94
2023-03-03T17:19:23.404Z,9.82
2023-03-03T17:24:25.463Z,9.53
2023-03-03T17:29:44.969Z,9.55
2023-03-03T17:34:55.055Z,9.84
2023-03-03T17:40:14.885Z,9.51
2023-03-03T17:45:13.507Z,9.55
2023-03-03T17:50:27.035Z,9.75
2023-03-03T17:55:46.821Z,9.53
2023-03-03T18:00:58.541Z,9.66
2023-03-03T18:06:34.969Z,9.57
2023-03-03T18:11:49.750Z,8.99
2023-03-03T18:17:15.783Z,9.58
2023-03-03T18:22:22.483Z,9.57
2023-03-03T18:27:47.323Z,9.30
2023-03-03T18:32:47.534Z,9.37
2023-03-03T18:37:45.254Z,9.52
2023-03-03T18:42:45.414Z,9.36
2023-03-03T18:48:03.609Z,9.58
2023-03-03T18:53:21.431Z,9.24
2023-03-03T18:58:34.655Z,9.50
2023-03-03T19:03:36.649Z,9.28
2023-03-03T19:08:45.982Z,9.28
2023-03-03T19:13:47.553Z,8.99
2023-03-03T19:19:10.607Z,8.83
2023-03-03T19:24:27.836Z,9.24
2023-03-03T19:30:00.223Z,9.19
2023-03-03T19:35:08.876Z,9.34
2023-03-03T19:40:18.397Z,9.23
2023-03-03T19:45:53.557Z,8.65
2023-03-03T19:50:57.996Z,9.18
2023-03-03T19:56:10.723Z,9.15
2023-03-03T20:01:20.140Z,8.80
2023-03-03T20:06:39.797Z,8.90
2023-03-03T20:11:51.607Z,8.80
2023-03-03T20:16:53.757Z,8.59
2023-03-03T20:22:03.057Z,8.58
2023-03-03T20:27:06.189Z,8.55
2023-03-03T20:32:14.004Z,8.62
2023-03-03T20:37:15.569Z,8.43
2023-03-03T20:42:24.624Z,8.39
2023-03-03T20:47:37.603Z,7.88
2023-03-03T20:52:42.349Z,8.11
2023-03-03T20:57:47.352Z,8.02
2023-03-03T21:02:50.354Z,8.20
2023-03-03T21:07:52.754Z,8.18
2023-03-03T21:12:51.662Z,8.32
2023-03-03T21:17:50.049Z,8.47
2023-03-03T21:22:47.883Z,8.54
2023-03-03T21:27:44.850Z,8.55
2023-03-03T21:32:44.160Z,8.58
2023-03-03T21:37:49.702Z,8.18
2023-03-03T21:42:46.809Z,8.64
2023-03-03T21:47:44.373Z,8.31
2023-03-03T21:52:41.219Z,8.45
2023-03-03T21:57:38.108Z,8.77
2023-03-03T22:02:35.138Z,8.44
2023-03-03T22:07:32.785Z,8.70
2023-03-03T22:12:32.300Z,8.50
2023-03-03T22:17:29.095Z,8.74
2023-03-03T22:22:25.905Z,8.58
2023-03-03T22:27:23.479Z,8.48
2023-03-03T22:32:20.350Z,8.88
2023-03-03T22:37:17.326Z,8.87
2023-03-03T22:42:14.117Z,8.74
2023-03-03T22:47:11.641Z,8.83
2023-03-03T22:52:08.510Z,8.90
2023-03-03T22:57:05.254Z,8.91
2023-03-03T23:02:02.524Z,8.90
2023-03-03T23:07:00.858Z,8.72
2023-03-03T23:11:57.684Z,8.95
2023-03-03T23:16:54.440Z,8.39
2023-03-03T23:21:51.350Z,8.96
2023-03-03T23:26:51.282Z,8.93
2023-03-03T23:31:48.280Z,8.90
2023-03-03T23:36:45.089Z,9.01
2023-03-03T23:41:41.929Z,9.03
2023-03-03T23:46:40.113Z,8.70
2023-03-03T23:51:37.239Z,8.55
2023-03-03T23:56:34.230Z,8.87
